createdAt,value
2023-02-20T00:00:54.215Z,18.02
2023-02-20T00:03:21.390Z,18.02
2023-02-20T00:05:48.407Z,18.00
2023-02-20T00:08:15.462Z,18.00
2023-02-20T00:10:42.712Z,17.99
2023-02-20T00:13:09.760Z,17.97
2023-02-20T00:15:38.028Z,17.97
2023-02-20T00:18:04.937Z,17.96
2023-02-20T00:20:33.545Z,17.96
2023-02-20T00:23:00.497Z,17.96
2023-02-20T00:25:27.449Z,17.96
2023-02-20T00:27:54.503Z,17.95
2023-02-20T00:30:24.621Z,17.95
2023-02-20T00:32:53.850Z,17.95
2023-02-20T00:35:22.583Z,17.95
2023-02-20T00:37:50.070Z,17.95
2023-02-20T00:40:19.133Z,17.97
2023-02-20T00:42:46.384Z,17.98
2023-02-20T00:45:14.561Z,18.00
2023-02-20T00:47:41.989Z,18.02
2023-02-20T00:50:10.975Z,18.04
2023-02-20T00:52:39.744Z,18.05
2023-02-20T00:55:07.527Z,18.05
2023-02-20T00:57:34.656Z,18.06
2023-02-20T01:00:01.641Z,18.07
2023-02-20T01:02:28.544Z,18.08
2023-02-20T01:04:56.895Z,18.09
2023-02-20T01:07:23.869Z,18.10
2023-02-20T01:09:50.775Z,18.10
2023-02-20T01:12:17.949Z,18.11
2023-02-20T01:14:46.257Z,18.11
2023-02-20T01:17:14.707Z,18.12
2023-02-20T01:19:42.979Z,18.12
2023-02-20T01:22:10.034Z,18.12
2023-02-20T01:24:37.034Z,18.12
2023-02-20T01:27:04.287Z,18.12
2023-02-20T01:29:31.457Z,18.12
2023-02-20T01:31:59.214Z,18.13
2023-02-20T01:34:26.325Z,18.14
2023-02-20T01:36:56.350Z,18.14
2023-02-20T01:39:28.397Z,18.14
2023-02-20T01:41:59.814Z,18.14
2023-02-20T01:44:31.722Z,18.14
2023-02-20T01:47:08.798Z,18.13
2023-02-20T01:49:56.079Z,18.12
2023-02-20T01:52:28.966Z,18.11
2023-02-20T01:55:11.602Z,18.11
2023-02-20T01:57:42.726Z,18.10
2023-02-20T02:00:14.565Z,18.09
2023-02-20T02:02:46.642Z,18.09
2023-02-20T02:05:14.297Z,18.09
2023-02-20T02:07:41.675Z,18.08
2023-02-20T02:10:16.804Z,18.10
2023-02-20T02:12:48.122Z,18.10
2023-02-20T02:15:17.659Z,18.10
2023-02-20T02:18:03.428Z,18.09
2023-02-20T02:20:55.320Z,18.09
2023-02-20T02:23:59.267Z,18.09
2023-02-20T02:26:53.664Z,18.10
2023-02-20T02:29:42.726Z,18.10
2023-02-20T02:32:47.046Z,18.09
2023-02-20T02:35:51.984Z,18.08
2023-02-20T02:38:30.590Z,18.06
2023-02-20T02:41:27.653Z,18.04
2023-02-20T02:44:05.131Z,18.03
2023-02-20T02:46:51.957Z,18.04
2023-02-20T02:49:42.266Z,18.05
2023-02-20T02:52:11.278Z,18.05
2023-02-20T02:54:38.478Z,18.05
2023-02-20T02:57:25.727Z,18.05
2023-02-20T03:00:09.757Z,18.05
2023-02-20T03:02:46.849Z,18.05
2023-02-20T03:05:18.384Z,18.05
2023-02-20T03:07:47.651Z,18.06
2023-02-20T03:10:20.829Z,18.07
2023-02-20T03:12:51.298Z,18.08
2023-02-20T03:15:38.330Z,18.09
2023-02-20T03:18:23.343Z,18.09
2023-02-20T03:20:56.856Z,18.10
2023-02-20T03:23:27.752Z,18.11
2023-02-20T03:25:59.443Z,18.11
2023-02-20T03:29:14.053Z,18.12
2023-02-20T03:31:49.387Z,18.12
2023-02-20T03:34:46.938Z,18.11
2023-02-20T03:37:40.833Z,18.09
2023-02-20T03:40:32.240Z,18.07
2023-02-20T03:43:28.359Z,18.06
2023-02-20T03:46:23.590Z,18.06
2023-02-20T03:48:59.022Z,18.06
2023-02-20T03:51:45.915Z,18.07
2023-02-20T03:54:21.072Z,18.08
2023-02-20T03:56:55.842Z,18.08
2023-02-20T03:59:28.797Z,18.08
2023-02-20T04:02:00.497Z,18.07
2023-02-20T04:04:36.846Z,18.06
2023-02-20T04:07:10.571Z,18.06
2023-02-20T04:09:43.436Z,18.06
2023-02-20T04:12:30.923Z,18.06
2023-02-20T04:15:00.300Z,18.06
2023-02-20T04:17:42.627Z,18.08
2023-02-20T04:20:10.446Z,18.08
2023-02-20T04:22:45.505Z,18.07
2023-02-20T04:25:39.867Z,18.08
2023-02-20T04:28:12.416Z,18.08
2023-02-20T04:30:47.024Z,18.08
2023-02-20T04:33:15.933Z,18.08
2023-02-20T04:35:43.584Z,18.08
2023-02-20T04:38:11.745Z,18.07
2023-02-20T04:40:39.826Z,18.08
2023-02-20T04:43:06.828Z,18.08
2023-02-20T04:45:34.972Z,18.07
2023-02-20T04:48:02.005Z,18.07
2023-02-20T04:50:32.254Z,18.08
2023-02-20T04:53:01.604Z,18.08
2023-02-20T04:55:29.199Z,18.08
2023-02-20T04:57:58.571Z,18.09
2023-02-20T05:00:28.280Z,18.10
2023-02-20T05:02:55.986Z,18.09
2023-02-20T05:05:28.683Z,18.09
2023-02-20T05:08:04.293Z,18.09
2023-02-20T05:10:40.762Z,18.08
2023-02-20T05:13:07.888Z,18.09
2023-02-20T05:15:36.005Z,18.08
2023-02-20T05:18:03.035Z,18.07
2023-02-20T05:20:48.584Z,18.07
2023-02-20T05:23:15.553Z,18.06
2023-02-20T05:25:42.477Z,18.04
2023-02-20T05:28:09.421Z,18.02
2023-02-20T05:30:36.320Z,18.00
2023-02-20T05:33:03.470Z,17.99
2023-02-20T05:35:30.404Z,17.97
2023-02-20T05:37:57.612Z,17.95
2023-02-20T05:40:24.655Z,17.95
2023-02-20T05:42:51.602Z,17.93
2023-02-20T05:45:19.525Z,17.92
2023-02-20T05:47:46.512Z,17.91
2023-02-20T05:50:13.472Z,17.91
2023-02-20T05:52:40.512Z,17.91
2023-02-20T05:55:14.027Z,17.90
2023-02-20T05:57:41.053Z,17.90
2023-02-20T06:00:08.919Z,17.89
2023-02-20T06:02:39.052Z,17.89
2023-02-20T06:05:08.955Z,17.89
2023-02-20T06:07:37.816Z,17.88
2023-02-20T06:10:05.833Z,17.88
2023-02-20T06:12:33.002Z,17.87
2023-02-20T06:15:00.380Z,17.86
2023-02-20T06:17:32.044Z,17.86
2023-02-20T06:20:01.059Z,17.88
2023-02-20T06:22:28.296Z,17.89
2023-02-20T06:24:55.417Z,17.92
2023-02-20T06:27:22.663Z,17.94
2023-02-20T06:29:50.465Z,17.96
2023-02-20T06:32:18.198Z,17.98
2023-02-20T06:34:47.225Z,17.98
2023-02-20T06:37:16.764Z,17.99
2023-02-20T06:39:46.553Z,18.00
2023-02-20T06:42:13.507Z,18.01
2023-02-20T06:44:40.348Z,18.01
2023-02-20T06:47:09.381Z,18.01
2023-02-20T06:49:38.233Z,18.00
2023-02-20T06:52:07.747Z,18.00
2023-02-20T06:54:36.028Z,17.99
2023-02-20T06:57:04.710Z,18.00
2023-02-20T06:59:31.859Z,18.00
2023-02-20T07:01:58.842Z,18.00
2023-02-20T07:04:31.483Z,17.99
2023-02-20T07:06:59.962Z,18.00
2023-02-20T07:09:27.325Z,17.99
2023-02-20T07:11:55.338Z,18.00
2023-02-20T07:14:22.954Z,18.00
2023-02-20T07:16:49.882Z,18.00
2023-02-20T07:19:16.931Z,17.99
2023-02-20T07:21:48.027Z,17.98
2023-02-20T07:24:15.440Z,17.99
2023-02-20T07:26:42.586Z,17.98
2023-02-20T07:29:10.981Z,17.97
2023-02-20T07:31:39.323Z,17.98
2023-02-20T07:34:08.661Z,17.98
2023-02-20T07:36:37.325Z,18.00
2023-02-20T07:39:06.872Z,18.01
2023-02-20T07:41:37.079Z,18.02
2023-02-20T07:44:09.778Z,18.02
2023-02-20T07:46:37.092Z,18.03
2023-02-20T07:49:05.700Z,18.04
2023-02-20T07:51:33.839Z,18.06
2023-02-20T07:54:02.698Z,18.07
2023-02-20T07:56:30.429Z,18.08
2023-02-20T07:59:01.057Z,18.09
2023-02-20T08:01:30.459Z,18.09
2023-02-20T08:03:57.694Z,18.09
2023-02-20T08:06:24.721Z,18.08
2023-02-20T08:08:52.494Z,18.08
2023-02-20T08:11:24.897Z,18.08
2023-02-20T08:13:58.359Z,18.08
2023-02-20T08:16:27.238Z,18.06
2023-02-20T08:18:56.745Z,18.06
2023-02-20T08:21:23.798Z,18.07
2023-02-20T08:23:52.802Z,18.07
2023-02-20T08:26:20.426Z,18.07
2023-02-20T08:28:48.663Z,18.07
2023-02-20T08:31:30.812Z,18.07
2023-02-20T08:33:59.013Z,18.07
2023-02-20T08:36:26.042Z,18.07
2023-02-20T08:38:53.323Z,18.05
2023-02-20T08:41:20.490Z,18.05
2023-02-20T08:43:47.784Z,18.04
2023-02-20T08:46:15.172Z,18.05
2023-02-20T08:48:43.167Z,18.05
2023-02-20T08:51:10.164Z,18.06
2023-02-20T08:53:39.475Z,18.08
2023-02-20T08:56:07.542Z,18.09
2023-02-20T08:58:34.486Z,18.10
2023-02-20T09:01:01.540Z,18.10
2023-02-20T09:03:29.619Z,18.10
2023-02-20T09:05:56.772Z,18.10
2023-02-20T09:08:24.640Z,18.10
2023-02-20T09:10:51.771Z,18.09
2023-02-20T09:13:19.027Z,18.09
2023-02-20T09:15:45.973Z,18.09
2023-02-20T09:18:14.865Z,18.08
2023-02-20T09:20:42.932Z,18.07
2023-02-20T09:23:10.503Z,18.07
2023-02-20T09:25:37.745Z,18.08
2023-02-20T09:28:07.484Z,18.10
2023-02-20T09:30:35.567Z,18.10
2023-02-20T09:33:03.246Z,18.11
2023-02-20T09:35:31.607Z,18.11
2023-02-20T09:37:58.965Z,18.13
2023-02-20T09:40:30.133Z,18.14
2023-02-20T09:43:15.635Z,18.17
2023-02-20T09:45:52.590Z,18.17
2023-02-20T09:48:23.399Z,18.19
2023-02-20T09:50:56.138Z,18.20
2023-02-20T09:53:50.117Z,18.23
2023-02-20T09:56:21.368Z,18.23
2023-02-20T09:58:59.796Z,18.24
2023-02-20T10:01:27.858Z,18.25
2023-02-20T10:03:58.271Z,18.25
2023-02-20T10:06:32.501Z,18.24
2023-02-20T10:09:01.181Z,18.24
2023-02-20T10:12:02.526Z,18.23
2023-02-20T10:14:38.690Z,18.23
2023-02-20T10:17:27.654Z,18.22
2023-02-20T10:20:19.783Z,18.21
2023-02-20T10:22:54.016Z,18.19
2023-02-20T10:25:32.825Z,18.18
2023-02-20T10:28:17.450Z,18.18
2023-02-20T10:31:02.450Z,18.18
2023-02-20T10:33:43.081Z,18.18
2023-02-20T10:36:54.661Z,18.19
2023-02-20T10:39:26.013Z,18.19
2023-02-20T10:42:01.712Z,18.21
2023-02-20T10:44:52.386Z,18.21
2023-02-20T10:47:44.697Z,18.23
2023-02-20T10:50:16.702Z,18.24
2023-02-20T10:52:56.345Z,18.25
2023-02-20T10:55:41.296Z,18.26
2023-02-20T10:58:16.267Z,18.27
2023-02-20T11:00:57.339Z,18.27
2023-02-20T11:03:34.612Z,18.27
2023-02-20T11:06:04.294Z,18.28
2023-02-20T11:08:31.269Z,18.28
2023-02-20T11:11:06.202Z,18.28
2023-02-20T11:13:34.976Z,18.27
2023-02-20T11:16:02.353Z,18.26
2023-02-20T11:18:38.720Z,18.27
2023-02-20T11:21:05.886Z,18.28
2023-02-20T11:23:51.089Z,18.30
2023-02-20T11:26:21.111Z,18.31
2023-02-20T11:29:11.237Z,18.32
2023-02-20T11:31:39.674Z,18.34
2023-02-20T11:34:12.948Z,18.33
2023-02-20T11:36:45.666Z,18.33
2023-02-20T11:39:25.029Z,18.32
2023-02-20T11:42:06.722Z,18.32
2023-02-20T11:44:33.834Z,18.31
2023-02-20T11:47:22.817Z,18.31
2023-02-20T11:49:50.488Z,18.32
2023-02-20T11:52:24.653Z,18.33
2023-02-20T11:55:22.891Z,18.33
2023-02-20T11:57:51.171Z,18.34
2023-02-20T12:00:28.910Z,18.34
2023-02-20T12:03:08.659Z,18.34
2023-02-20T12:05:44.172Z,18.35
2023-02-20T12:08:32.636Z,18.37
2023-02-20T12:11:04.770Z,18.36
2023-02-20T12:13:40.006Z,18.36
2023-02-20T12:16:38.576Z,18.35
2023-02-20T12:19:14.544Z,18.33
2023-02-20T12:21:53.776Z,18.33
2023-02-20T12:24:36.093Z,18.32
2023-02-20T12:27:09.913Z,18.31
2023-02-20T12:29:47.137Z,18.30
2023-02-20T12:32:30.722Z,18.29
2023-02-20T12:35:20.900Z,18.31
2023-02-20T12:38:32.996Z,18.33
2023-02-20T12:41:32.509Z,18.33
2023-02-20T12:44:14.605Z,18.33
2023-02-20T12:46:59.961Z,18.33
2023-02-20T12:50:04.921Z,18.32
2023-02-20T12:52:52.818Z,18.31
2023-02-20T12:56:02.297Z,18.31
2023-02-20T12:58:57.829Z,18.30
2023-02-20T13:01:38.437Z,18.29
2023-02-20T13:04:31.026Z,18.29
2023-02-20T13:07:05.749Z,18.29
2023-02-20T13:09:45.356Z,18.30
2023-02-20T13:12:17.214Z,18.32
2023-02-20T13:15:03.760Z,18.34
2023-02-20T13:17:52.786Z,18.36
2023-02-20T13:20:26.844Z,18.37
2023-02-20T13:23:05.409Z,18.40
2023-02-20T13:25:42.571Z,18.41
2023-02-20T13:28:12.580Z,18.41
2023-02-20T13:30:42.977Z,18.40
2023-02-20T13:33:19.140Z,18.39
2023-02-20T13:35:58.474Z,18.40
2023-02-20T13:38:27.874Z,18.39
2023-02-20T13:41:01.169Z,18.39
2023-02-20T13:43:38.952Z,18.39
2023-02-20T13:46:10.728Z,18.39
2023-02-20T13:48:37.732Z,18.40
2023-02-20T13:51:16.782Z,18.42
2023-02-20T13:53:51.736Z,18.44
2023-02-20T13:56:19.847Z,18.46
2023-02-20T13:58:48.651Z,18.46
2023-02-20T14:01:15.759Z,18.47
2023-02-20T14:03:43.093Z,18.48
2023-02-20T14:06:18.656Z,18.49
2023-02-20T14:08:48.004Z,18.49
2023-02-20T14:11:36.367Z,18.51
2023-02-20T14:14:10.814Z,18.52
2023-02-20T14:16:42.132Z,18.53
2023-02-20T14:19:22.523Z,18.54
2023-02-20T14:21:50.282Z,18.54
2023-02-20T14:24:29.504Z,18.53
2023-02-20T14:26:57.234Z,18.53
2023-02-20T14:29:30.574Z,18.52
2023-02-20T14:31:59.922Z,18.52
2023-02-20T14:34:36.023Z,18.51
2023-02-20T14:37:28.852Z,18.51
2023-02-20T14:40:01.864Z,18.49
2023-02-20T14:42:29.329Z,18.47
2023-02-20T14:45:06.833Z,18.46
2023-02-20T14:47:35.850Z,18.46
2023-02-20T14:50:27.853Z,18.46
2023-02-20T14:53:24.307Z,18.45
2023-02-20T14:55:52.570Z,18.44
2023-02-20T14:58:23.526Z,18.43
2023-02-20T15:00:51.156Z,18.43
2023-02-20T15:03:30.951Z,18.43
2023-02-20T15:06:06.725Z,18.42
2023-02-20T15:08:36.510Z,18.41
2023-02-20T15:11:15.485Z,18.41
2023-02-20T15:13:46.304Z,18.40
2023-02-20T15:16:42.092Z,18.39
2023-02-20T15:19:22.915Z,18.38
2023-02-20T15:21:57.369Z,18.38
2023-02-20T15:24:38.456Z,18.38
2023-02-20T15:27:15.296Z,18.38
2023-02-20T15:29:44.594Z,18.39
2023-02-20T15:32:22.016Z,18.38
2023-02-20T15:34:53.334Z,18.38
2023-02-20T15:37:38.150Z,18.39
2023-02-20T15:40:22.389Z,18.38
2023-02-20T15:42:56.568Z,18.37
2023-02-20T15:45:26.570Z,18.38
2023-02-20T15:47:53.755Z,18.39
2023-02-20T15:50:21.464Z,18.40
2023-02-20T15:52:50.582Z,18.42
2023-02-20T15:55:20.724Z,18.44
2023-02-20T15:57:50.058Z,18.44
2023-02-20T16:00:30.751Z,18.46
2023-02-20T16:02:57.959Z,18.47
2023-02-20T16:05:25.079Z,18.48
2023-02-20T16:07:52.771Z,18.48
2023-02-20T16:10:24.804Z,18.48
2023-02-20T16:12:57.043Z,18.47
2023-02-20T16:15:25.509Z,18.46
2023-02-20T16:17:53.830Z,18.46
2023-02-20T16:20:24.539Z,18.45
2023-02-20T16:22:52.141Z,18.44
2023-02-20T16:25:21.911Z,18.42
2023-02-20T16:27:54.111Z,18.40
2023-02-20T16:30:33.289Z,18.39
2023-02-20T16:33:22.357Z,18.37
2023-02-20T16:35:51.859Z,18.35
2023-02-20T16:38:21.098Z,18.34
2023-02-20T16:40:54.293Z,18.33
2023-02-20T16:43:23.695Z,18.31
2023-02-20T16:45:50.958Z,18.31
2023-02-20T16:48:20.983Z,18.31
2023-02-20T16:50:50.534Z,18.31
2023-02-20T16:53:17.723Z,18.30
2023-02-20T16:55:47.380Z,18.29
2023-02-20T16:58:14.782Z,18.29
2023-02-20T17:00:56.577Z,18.28
2023-02-20T17:03:25.601Z,18.29
2023-02-20T17:05:59.619Z,18.28
2023-02-20T17:08:27.723Z,18.29
2023-02-20T17:10:55.214Z,18.28
2023-02-20T17:13:22.529Z,18.28
2023-02-20T17:15:50.114Z,18.27
2023-02-20T17:18:17.271Z,18.26
2023-02-20T17:20:44.308Z,18.26
2023-02-20T17:23:11.570Z,18.25
2023-02-20T17:25:38.750Z,18.25
2023-02-20T17:28:06.900Z,18.24
2023-02-20T17:30:34.856Z,18.23
2023-02-20T17:33:02.736Z,18.23
2023-02-20T17:35:29.888Z,18.23
2023-02-20T17:37:56.832Z,18.22
2023-02-20T17:40:24.088Z,18.21
2023-02-20T17:42:51.331Z,18.20
2023-02-20T17:45:18.486Z,18.20
2023-02-20T17:47:45.528Z,18.20
2023-02-20T17:50:12.578Z,18.20
2023-02-20T17:52:39.622Z,18.19
2023-02-20T17:55:06.977Z,18.19
2023-02-20T17:57:34.025Z,18.19
2023-02-20T18:00:00.971Z,18.17
2023-02-20T18:02:28.025Z,18.17
2023-02-20T18:04:54.856Z,18.17
2023-02-20T18:07:21.898Z,18.17
2023-02-20T18:09:48.967Z,18.16
2023-02-20T18:12:16.507Z,18.15
2023-02-20T18:14:46.089Z,18.15
2023-02-20T18:17:13.888Z,18.14
2023-02-20T18:19:41.133Z,18.14
2023-02-20T18:22:08.183Z,18.15
2023-02-20T18:24:35.227Z,18.15
2023-02-20T18:27:02.285Z,18.15
2023-02-20T18:29:30.156Z,18.15
2023-02-20T18:31:58.166Z,18.15
2023-02-20T18:34:27.628Z,18.15
2023-02-20T18:36:55.066Z,18.14
2023-02-20T18:39:22.423Z,18.15
2023-02-20T18:41:58.425Z,18.15
2023-02-20T18:44:25.462Z,18.15
2023-02-20T18:46:52.628Z,18.14
2023-02-20T18:49:21.036Z,18.15
2023-02-20T18:51:48.310Z,18.15
2023-02-20T18:54:27.164Z,18.15
2023-02-20T18:56:55.359Z,18.14
2023-02-20T18:59:23.785Z,18.15
2023-02-20T19:01:51.948Z,18.16
2023-02-20T19:04:20.954Z,18.18
2023-02-20T19:06:48.951Z,18.19
2023-02-20T19:09:24.170Z,18.20
2023-02-20T19:11:53.156Z,18.20
2023-02-20T19:14:21.634Z,18.21
2023-02-20T19:16:58.290Z,18.21
2023-02-20T19:19:28.731Z,18.20
2023-02-20T19:21:55.768Z,18.20
2023-02-20T19:24:25.999Z,18.19
2023-02-20T19:26:53.211Z,18.19
2023-02-20T19:29:20.814Z,18.20
2023-02-20T19:31:48.163Z,18.21
2023-02-20T19:34:15.937Z,18.20
2023-02-20T19:36:45.909Z,18.21
2023-02-20T19:39:14.579Z,18.21
2023-02-20T19:41:41.882Z,18.21
2023-02-20T19:44:14.106Z,18.21
2023-02-20T19:46:41.423Z,18.23
2023-02-20T19:49:13.904Z,18.24
2023-02-20T19:51:46.987Z,18.26
2023-02-20T19:54:14.577Z,18.26
2023-02-20T19:57:04.422Z,18.27
2023-02-20T19:59:31.771Z,18.27
2023-02-20T20:02:00.354Z,18.27
2023-02-20T20:04:30.703Z,18.27
2023-02-20T20:06:58.542Z,18.26
2023-02-20T20:09:36.211Z,18.25
2023-02-20T20:12:26.192Z,18.24
2023-02-20T20:14:53.797Z,18.22
2023-02-20T20:17:20.873Z,18.23
2023-02-20T20:19:58.409Z,18.24
2023-02-20T20:22:27.114Z,18.25
2023-02-20T20:24:54.191Z,18.23
2023-02-20T20:27:21.239Z,18.23
2023-02-20T20:29:51.976Z,18.24
2023-02-20T20:32:21.489Z,18.24
2023-02-20T20:34:52.870Z,18.24
2023-02-20T20:37:27.851Z,18.25
2023-02-20T20:39:57.535Z,18.25
2023-02-20T20:42:26.525Z,18.25
2023-02-20T20:44:57.012Z,18.25
2023-02-20T20:47:25.234Z,18.23
2023-02-20T20:49:52.273Z,18.21
2023-02-20T20:52:23.352Z,18.20
2023-02-20T20:54:55.628Z,18.19
2023-02-20T20:57:26.471Z,18.19
2023-02-20T20:59:56.037Z,18.19
2023-02-20T21:02:23.690Z,18.20
2023-02-20T21:04:57.886Z,18.25
2023-02-20T21:07:31.212Z,18.28
2023-02-20T21:09:58.041Z,18.29
2023-02-20T21:12:24.895Z,18.31
2023-02-20T21:14:54.468Z,18.33
2023-02-20T21:17:21.387Z,18.35
2023-02-20T21:19:48.358Z,18.35
2023-02-20T21:22:15.479Z,18.36
2023-02-20T21:24:42.451Z,18.36
2023-02-20T21:27:09.602Z,18.36
2023-02-20T21:29:37.799Z,18.37
2023-02-20T21:32:05.216Z,18.36
2023-02-20T21:34:32.317Z,18.36
2023-02-20T21:37:00.026Z,18.36
2023-02-20T21:39:27.316Z,18.35
2023-02-20T21:42:13.016Z,18.34
2023-02-20T21:44:43.041Z,18.33
2023-02-20T21:47:11.277Z,18.32
2023-02-20T21:49:46.937Z,18.31
2023-02-20T21:52:15.682Z,18.30
2023-02-20T21:54:48.006Z,18.30
2023-02-20T21:57:15.259Z,18.29
2023-02-20T21:59:42.157Z,18.27
2023-02-20T22:02:16.498Z,18.27
2023-02-20T22:04:43.877Z,18.26
2023-02-20T22:07:33.993Z,18.25
2023-02-20T22:10:20.143Z,18.23
2023-02-20T22:13:06.249Z,18.20
2023-02-20T22:15:52.404Z,18.17
2023-02-20T22:18:39.952Z,18.14
2023-02-20T22:21:26.099Z,18.11
2023-02-20T22:24:11.958Z,18.07
2023-02-20T22:26:58.121Z,18.04
2023-02-20T22:29:44.557Z,18.01
2023-02-20T22:32:30.465Z,17.99
2023-02-20T22:35:16.950Z,17.97
2023-02-20T22:38:05.420Z,17.96
2023-02-20T22:40:51.417Z,17.99
2023-02-20T22:43:37.320Z,17.98
2023-02-20T22:46:28.421Z,17.98
2023-02-20T22:49:14.135Z,17.98
2023-02-20T22:52:04.779Z,17.98
2023-02-20T22:55:03.707Z,18.00
2023-02-20T22:57:50.177Z,18.03
2023-02-20T23:00:35.850Z,18.04
2023-02-20T23:03:22.165Z,18.06
2023-02-20T23:06:17.380Z,18.06
2023-02-20T23:09:04.802Z,18.06
2023-02-20T23:11:55.519Z,18.04
2023-02-20T23:14:41.802Z,18.03
2023-02-20T23:17:43.158Z,18.00
2023-02-20T23:20:37.356Z,17.98
2023-02-20T23:23:23.567Z,17.97
2023-02-20T23:26:09.191Z,17.96
2023-02-20T23:28:54.891Z,17.97
2023-02-20T23:31:52.533Z,17.96
2023-02-20T23:34:38.337Z,17.95
2023-02-20T23:37:24.311Z,17.93
2023-02-20T23:40:10.421Z,17.91
2023-02-20T23:42:56.929Z,17.90
2023-02-20T23:45:43.620Z,17.88
2023-02-20T23:48:29.870Z,17.89
2023-02-20T23:51:16.031Z,17.94
2023-02-20T23:54:02.116Z,17.95
2023-02-20T23:56:47.781Z,17.97
2023-02-20T23:59:33.816Z,17.97
